Time;durP1;ratioP1;P1;durP2;ratioP2;P2;SDS_P1;SDS_P2;PMS_P1;PMS_P2;Temp;Humidity;BMP_temperature;BMP_pressure;BME280_temperature;BME280_humidity;BME280_pressure;Samples;Min_cycle;Max_cycle;Signal;HPM_P1;HPM_P2
2024/01/17 00:00:46;;;;;;;16.63;9.30;;;0.00;62.10;;;;;;4999373;28;20330;-61
2024/01/17 00:03:12;;;;;;;17.33;10.07;;;-0.10;64.20;;;;;;5000089;28;20105;-60
2024/01/17 00:05:37;;;;;;;13.30;8.63;;;-0.10;67.70;;;;;;4999997;28;20121;-60
2024/01/17 00:08:03;;;;;;;17.58;9.45;;;-0.20;66.40;;;;;;5000077;28;20089;-60
2024/01/17 00:10:29;;;;;;;17.48;9.10;;;-0.30;85.60;;;;;;4999256;28;20036;-60
2024/01/17 00:12:55;;;;;;;19.60;10.65;;;-0.20;89.60;;;;;;5000159;28;20109;-60
2024/01/17 00:15:22;;;;;;;18.25;10.18;;;-0.20;82.20;;;;;;4999817;28;20065;-60
2024/01/17 00:17:48;;;;;;;16.00;9.25;;;-0.30;81.00;;;;;;4999915;28;20038;-61
2024/01/17 00:20:14;;;;;;;18.77;9.90;;;-0.20;84.80;;;;;;4999142;28;20038;-60
2024/01/17 00:22:40;;;;;;;17.67;10.18;;;-0.30;87.20;;;;;;4999756;28;20413;-60
2024/01/17 00:25:09;;;;;;;20.73;10.20;;;-0.20;86.80;;;;;;4998814;28;20406;-60
2024/01/17 00:27:38;;;;;;;16.08;9.48;;;-0.20;81.70;;;;;;4999930;28;20030;-60
2024/01/17 00:30:06;;;;;;;16.52;9.95;;;-0.30;82.10;;;;;;4999664;28;20413;-61
2024/01/17 00:32:32;;;;;;;16.92;9.30;;;-0.50;85.40;;;;;;4998615;28;20061;-61
2024/01/17 00:34:58;;;;;;;16.65;9.43;;;-0.60;95.50;;;;;;4999521;28;20394;-61
2024/01/17 00:37:23;;;;;;;17.92;9.32;;;-0.60;98.90;;;;;;4999077;28;20053;-61
2024/01/17 00:39:50;;;;;;;17.67;9.63;;;-0.50;98.80;;;;;;4999392;28;20107;-61
2024/01/17 00:42:16;;;;;;;18.50;9.25;;;-0.40;98.40;;;;;;4982409;28;20398;-61
2024/01/17 00:44:42;;;;;;;17.63;9.18;;;-0.40;90.50;;;;;;4999212;28;20034;-60
2024/01/17 00:47:08;;;;;;;17.63;9.10;;;-0.30;85.40;;;;;;4999315;28;20088;-60
2024/01/17 00:49:35;;;;;;;14.95;9.65;;;-0.40;79.10;;;;;;4998525;28;20034;-60
2024/01/17 00:52:00;;;;;;;19.85;9.55;;;-0.40;78.60;;;;;;4982263;28;20038;-63
2024/01/17 00:54:26;;;;;;;13.82;8.68;;;-0.60;84.80;;;;;;4999215;28;20030;-62
2024/01/17 00:56:52;;;;;;;17.27;8.68;;;-0.60;92.20;;;;;;4998634;28;20061;-60
2024/01/17 00:59:18;;;;;;;14.05;8.77;;;-0.60;95.80;;;;;;4998369;28;20034;-60
2024/01/17 01:01:44;;;;;;;15.95;8.55;;;-0.60;93.90;;;;;;4998588;28;20129;-60
2024/01/17 01:04:10;;;;;;;16.52;8.80;;;-0.60;92.80;;;;;;4998991;28;20049;-62
2024/01/17 01:06:36;;;;;;;14.70;8.38;;;-0.70;94.30;;;;;;4998322;28;20035;-60
2024/01/17 01:09:02;;;;;;;14.60;8.10;;;-0.80;97.60;;;;;;4998259;28;20034;-60
2024/01/17 01:11:32;;;;;;;15.52;7.95;;;-0.90;99.90;;;;;;4981885;28;20120;-61
2024/01/17 01:13:59;;;;;;;15.98;7.97;;;-1.00;99.90;;;;;;4998256;28;20042;-61
2024/01/17 01:16:25;;;;;;;14.88;7.50;;;-1.00;99.90;;;;;;4998641;28;20034;-62
2024/01/17 01:18:51;;;;;;;12.65;7.90;;;-1.00;99.90;;;;;;4998704;28;20030;-61
2024/01/17 01:21:17;;;;;;;12.48;7.55;;;-1.00;99.90;;;;;;4998633;28;20041;-61
2024/01/17 01:23:43;;;;;;;12.90;7.38;;;-1.10;99.90;;;;;;4981788;28;20401;-61
2024/01/17 01:26:09;;;;;;;16.13;8.05;;;-1.10;99.90;;;;;;4998526;28;20050;-61
2024/01/17 01:28:35;;;;;;;16.63;7.43;;;-1.10;99.90;;;;;;4997812;28;20271;-62
2024/01/17 01:31:01;;;;;;;12.88;8.10;;;-1.10;99.90;;;;;;4997542;28;20426;-60
2024/01/17 01:33:26;;;;;;;11.05;7.05;;;-1.20;99.90;;;;;;4998673;28;20124;-61
2024/01/17 01:35:52;;;;;;;14.48;7.43;;;-1.10;99.90;;;;;;4998482;28;20034;-61
2024/01/17 01:38:18;;;;;;;11.32;6.55;;;-1.00;99.90;;;;;;4981543;28;20046;-61
2024/01/17 01:40:44;;;;;;;14.07;7.75;;;-1.00;99.90;;;;;;4997729;28;20398;-61
2024/01/17 01:43:24;;;;;;;14.43;7.93;;;-1.00;99.90;;;;;;4997662;28;20101;-61
2024/01/17 01:46:01;;;;;;;12.00;7.70;;;-1.10;99.90;;;;;;4998169;28;20034;-63
2024/01/17 01:48:27;;;;;;;16.45;8.20;;;-1.10;99.90;;;;;;4998146;28;20041;-61
2024/01/17 01:50:53;;;;;;;10.85;7.07;;;-1.10;99.90;;;;;;4996945;28;20109;-61
2024/01/17 01:53:18;;;;;;;13.63;7.32;;;-1.00;99.90;;;;;;4981079;28;20048;-61
2024/01/17 01:55:45;;;;;;;12.43;7.22;;;-0.90;99.90;;;;;;4997126;28;20038;-61
2024/01/17 01:58:10;;;;;;;14.80;7.35;;;-0.80;99.40;;;;;;4997452;28;20038;-60
2024/01/17 02:00:36;;;;;;;12.43;7.13;;;-0.80;94.30;;;;;;4997165;28;20500;-61
2024/01/17 02:03:03;;;;;;;15.43;7.75;;;-0.70;92.30;;;;;;4997442;28;20034;-60
2024/01/17 02:05:28;;;;;;;12.35;7.25;;;-0.60;91.40;;;;;;4997141;28;20034;-61
2024/01/17 02:07:55;;;;;;;13.25;7.00;;;-0.50;85.10;;;;;;4998038;28;20045;-61
2024/01/17 02:10:21;;;;;;;10.00;6.82;;;-0.50;74.60;;;;;;4997022;28;20042;-61
2024/01/17 02:12:48;;;;;;;10.77;7.13;;;-0.60;64.50;;;;;;4997342;28;20038;-61
2024/01/17 02:15:14;;;;;;;13.35;7.50;;;-0.50;71.90;;;;;;4996987;28;20038;-61
2024/01/17 02:17:40;;;;;;;14.05;7.18;;;-0.50;74.10;;;;;;4998061;28;20386;-61
2024/01/17 02:20:07;;;;;;;12.32;7.63;;;-0.40;64.10;;;;;;4997022;28;20044;-61
2024/01/17 02:22:33;;;;;;;12.50;7.13;;;-0.20;49.90;;;;;;4996970;28;20026;-62
2024/01/17 02:25:03;;;;;;;13.02;7.32;;;-0.30;33.10;;;;;;4997569;28;20042;-62
2024/01/17 02:27:29;;;;;;;12.32;8.02;;;-0.40;42.10;;;;;;4997591;28;20188;-61
2024/01/17 02:29:55;;;;;;;13.32;7.72;;;-0.50;40.10;;;;;;4997559;28;20458;-62
2024/01/17 02:32:21;;;;;;;12.73;7.47;;;-0.70;40.70;;;;;;4997404;28;20046;-62
2024/01/17 02:34:47;;;;;;;15.55;7.75;;;-0.70;58.70;;;;;;4997510;28;20041;-61
2024/01/17 02:37:14;;;;;;;12.88;7.57;;;-0.70;71.60;;;;;;4996716;28;20043;-61
2024/01/17 02:39:40;;;;;;;14.23;7.35;;;-0.70;68.70;;;;;;4997683;28;20030;-61
2024/01/17 02:42:06;;;;;;;13.15;7.47;;;-0.60;62.40;;;;;;4997465;28;20031;-62
2024/01/17 02:44:31;;;;;;;14.00;7.47;;;-0.60;48.60;;;;;;4996731;28;20104;-61
2024/01/17 02:46:57;;;;;;;14.05;7.35;;;-0.70;40.80;;;;;;4997398;28;20035;-61
2024/01/17 02:49:23;;;;;;;15.35;7.25;;;-0.90;53.40;;;;;;4996533;28;20369;-61
2024/01/17 02:51:49;;;;;;;11.43;6.85;;;-0.90;70.70;;;;;;4997310;28;20038;-61
2024/01/17 02:54:14;;;;;;;12.00;7.05;;;-0.80;65.70;;;;;;4996517;28;20068;-61
2024/01/17 02:56:40;;;;;;;12.95;6.70;;;-0.80;58.90;;;;;;4997169;28;20050;-62
2024/01/17 02:59:07;;;;;;;12.65;6.95;;;-0.80;50.20;;;;;;4997216;28;20026;-62
2024/01/17 03:01:33;;;;;;;13.55;6.50;;;-0.70;49.50;;;;;;4998672;28;20117;-61
2024/01/17 03:03:59;;;;;;;12.65;7.20;;;-0.60;39.10;;;;;;5001223;28;20413;-61
2024/01/17 03:06:25;;;;;;;12.57;6.63;;;-0.60;29.40;;;;;;4984127;28;20046;-61
2024/01/17 03:08:51;;;;;;;15.50;6.90;;;-0.70;32.90;;;;;;5001111;28;20026;-61
2024/01/17 03:11:16;;;;;;;11.95;6.60;;;-0.70;28.80;;;;;;5001192;28;20151;-61
2024/01/17 03:13:42;;;;;;;10.45;6.60;;;-0.70;35.40;;;;;;5000306;28;20394;-62
2024/01/17 03:16:08;;;;;;;12.23;7.35;;;-0.80;29.10;;;;;;5000981;28;20307;-62
2024/01/17 03:18:36;;;;;;;11.25;7.05;;;-0.80;34.30;;;;;;5000877;28;20062;-61
2024/01/17 03:21:05;;;;;;;10.02;6.25;;;-0.90;38.50;;;;;;5000920;28;20034;-62
2024/01/17 03:23:31;;;;;;;11.88;6.72;;;-0.70;43.80;;;;;;5000193;28;20038;-61
2024/01/17 03:25:57;;;;;;;9.40;5.93;;;-0.70;28.00;;;;;;5000264;28;20037;-62
2024/01/17 03:28:23;;;;;;;13.50;7.65;;;-0.70;29.10;;;;;;5000234;28;20038;-62
2024/01/17 03:30:49;;;;;;;13.68;6.93;;;-0.70;33.80;;;;;;4999851;28;20092;-62
2024/01/17 03:33:14;;;;;;;11.25;6.97;;;-0.50;20.30;;;;;;5000123;28;20038;-62
2024/01/17 03:35:42;;;;;;;10.63;6.75;;;-0.40;9.50;;;;;;4999796;28;20031;-61
2024/01/17 03:38:08;;;;;;;11.52;6.53;;;-0.60;9.40;;;;;;5000590;28;20093;-62
2024/01/17 03:40:34;;;;;;;11.45;6.38;;;-0.60;15.40;;;;;;4999833;28;20045;-62
2024/01/17 03:42:59;;;;;;;12.80;6.82;;;-0.40;18.60;;;;;;4999868;28;20113;-61
2024/01/17 03:45:26;;;;;;;11.32;6.57;;;-0.40;4.90;;;;;;4999802;28;20026;-63
2024/01/17 03:47:52;;;;;;;11.38;6.40;;;-0.50;11.50;;;;;;5000408;28;20134;-62
2024/01/17 03:50:20;;;;;;;11.43;6.35;;;-0.60;12.20;;;;;;4983585;28;20047;-62
2024/01/17 03:52:45;;;;;;;12.82;6.25;;;-0.60;8.30;;;;;;5000643;28;20065;-62
2024/01/17 03:55:11;;;;;;;10.35;6.20;;;-0.50;17.90;;;;;;4999418;28;20030;-62
2024/01/17 03:57:37;;;;;;;12.13;5.55;;;-0.60;6.30;;;;;;4999448;28;20038;-62
2024/01/17 04:00:04;;;;;;;12.07;6.43;;;-0.50;2.90;;;;;;4999493;28;20069;-62
2024/01/17 04:02:30;;;;;;;11.25;6.40;;;-0.50;9.00;;;;;;5000162;28;20043;-61
2024/01/17 04:04:57;;;;;;;9.05;5.97;;;-0.60;13.80;;;;;;5000051;28;20448;-62
2024/01/17 04:07:22;;;;;;;11.18;6.43;;;-0.60;23.00;;;;;;5000057;28;20042;-62
2024/01/17 04:09:49;;;;;;;10.07;6.07;;;-0.60;26.80;;;;;;4999910;28;20038;-62
2024/01/17 04:12:14;;;;;;;11.82;6.13;;;-0.60;24.20;;;;;;4999540;28;20091;-62
2024/01/17 04:14:40;;;;;;;12.98;5.90;;;-0.60;17.50;;;;;;4999702;28;20117;-62
2024/01/17 04:17:06;;;;;;;12.07;6.60;;;-0.70;19.50;;;;;;4999022;28;20026;-62
2024/01/17 04:19:32;;;;;;;9.93;5.97;;;-0.60;30.10;;;;;;4982961;28;20038;-62
2024/01/17 04:21:58;;;;;;;12.43;5.93;;;-0.60;23.10;;;;;;4999825;28;20033;-61
2024/01/17 04:24:25;;;;;;;11.20;6.35;;;-0.60;18.30;;;;;;4999819;28;20038;-63
2024/01/17 04:26:52;;;;;;;13.45;7.57;;;-0.80;22.60;;;;;;4966757;28;20044;-63
2024/01/17 04:29:18;;;;;;;12.45;6.38;;;-0.80;32.00;;;;;;4999718;28;20031;-62
2024/01/17 04:31:44;;;;;;;10.68;6.57;;;-0.60;21.80;;;;;;4999546;28;20054;-62
2024/01/17 04:34:10;;;;;;;9.90;5.95;;;-0.60;16.70;;;;;;4999528;28;20042;-62
2024/01/17 04:36:35;;;;;;;10.52;6.53;;;-0.70;11.30;;;;;;4999386;28;20042;-62
2024/01/17 04:39:01;;;;;;;10.23;6.47;;;-0.80;19.40;;;;;;4998643;28;20050;-62
2024/01/17 04:41:27;;;;;;;10.43;6.03;;;-0.80;21.70;;;;;;4998660;28;20034;-62
2024/01/17 04:43:53;;;;;;;10.73;5.90;;;-0.80;19.70;;;;;;4999418;28;20027;-62
2024/01/17 04:46:19;;;;;;;9.98;6.38;;;-0.80;28.20;;;;;;4998593;28;20052;-62
2024/01/17 04:48:45;;;;;;;9.50;5.75;;;-0.80;29.60;;;;;;4999296;28;20306;-62
2024/01/17 04:51:11;;;;;;;8.63;5.82;;;-0.90;27.60;;;;;;4998443;28;20022;-62
2024/01/17 04:53:41;;;;;;;11.27;6.22;;;-0.70;30.70;;;;;;4999178;28;20034;-61
2024/01/17 04:56:09;;;;;;;11.23;6.95;;;-0.70;24.10;;;;;;4999075;28;20038;-62
2024/01/17 04:58:35;;;;;;;10.50;6.22;;;-0.60;13.10;;;;;;4998473;28;20349;-62
2024/01/17 05:01:01;;;;;;;12.90;6.10;;;-0.70;7.40;;;;;;5014734;28;20412;-62
2024/01/17 05:03:27;;;;;;;9.77;6.18;;;-0.70;17.20;;;;;;4998242;28;20026;-61
2024/01/17 05:05:53;;;;;;;13.18;6.50;;;-0.80;19.50;;;;;;4998302;28;20030;-61
2024/01/17 05:08:19;;;;;;;11.63;6.63;;;-0.80;17.40;;;;;;4982109;28;20057;-61
2024/01/17 05:10:46;;;;;;;13.88;6.80;;;-0.80;22.10;;;;;;4998919;28;20034;-62
2024/01/17 05:13:12;;;;;;;10.90;6.22;;;-0.80;26.00;;;;;;4998050;28;20034;-62
2024/01/17 05:15:39;;;;;;;9.27;6.20;;;-0.80;17.70;;;;;;4997888;28;20142;-62
2024/01/17 05:18:06;;;;;;;12.05;6.40;;;-0.70;11.50;;;;;;4998144;28;20037;-61
2024/01/17 05:20:33;;;;;;;11.05;5.60;;;-0.70;11.30;;;;;;4997988;28;20034;-61
2024/01/17 05:22:59;;;;;;;11.15;6.07;;;-0.80;23.90;;;;;;4998650;28;20037;-63
2024/01/17 05:25:26;;;;;;;10.60;6.05;;;-0.80;23.90;;;;;;5013095;28;20125;-63
2024/01/17 05:27:52;;;;;;;9.65;6.10;;;-0.80;16.40;;;;;;4998514;28;20092;-62
2024/01/17 05:30:25;;;;;;;8.30;5.75;;;-0.80;14.60;;;;;;4981582;28;20030;-62
2024/01/17 05:32:52;;;;;;;8.60;5.72;;;-0.70;24.00;;;;;;4998358;28;20057;-63
2024/01/17 05:35:20;;;;;;;10.75;6.20;;;-0.60;20.00;;;;;;4998254;28;20050;-63
2024/01/17 05:37:46;;;;;;;12.07;6.55;;;-0.50;17.80;;;;;;4998541;28;20118;-62
2024/01/17 05:40:12;;;;;;;13.07;6.93;;;-0.50;1.00;;;;;;4998314;28;20022;-63
2024/01/17 05:42:39;;;;;;;10.82;6.47;;;-0.50;8.10;;;;;;4998237;28;20271;-63
2024/01/17 05:45:07;;;;;;;9.52;5.72;;;-0.40;9.60;;;;;;4998277;28;20015;-64
2024/01/17 05:47:35;;;;;;;9.32;6.15;;;-0.20;5.80;;;;;;4998191;28;20046;-62
2024/01/17 05:50:03;;;;;;;14.32;6.55;;;-0.20;1.00;;;;;;4997470;28;20096;-62
2024/01/17 05:52:32;;;;;;;13.68;6.30;;;-0.20;1.00;;;;;;4998168;28;20337;-62
2024/01/17 05:54:58;;;;;;;9.18;5.75;;;-0.30;1.00;;;;;;4998240;28;20034;-62
2024/01/17 05:57:23;;;;;;;11.40;6.00;;;-0.30;1.00;;;;;;4997129;28;20042;-63
2024/01/17 05:59:49;;;;;;;10.32;5.68;;;-0.20;1.00;;;;;;4998039;28;20042;-62
2024/01/17 06:02:15;;;;;;;11.60;6.28;;;-0.30;1.00;;;;;;4997024;28;20100;-62
2024/01/17 06:04:40;;;;;;;12.85;6.07;;;-0.30;1.00;;;;;;4997863;28;20378;-62
2024/01/17 06:07:07;;;;;;;11.65;5.90;;;-0.40;1.00;;;;;;4996923;28;20034;-62
2024/01/17 06:09:32;;;;;;;12.90;5.90;;;-0.50;1.00;;;;;;4997140;28;20030;-62
2024/01/17 06:11:58;;;;;;;13.07;6.28;;;-0.40;1.00;;;;;;4996919;28;20038;-62
2024/01/17 06:14:24;;;;;;;12.70;6.53;;;-0.40;1.00;;;;;;4997903;28;20058;-61
2024/01/17 06:16:50;;;;;;;9.40;6.00;;;-0.40;1.00;;;;;;4997049;28;20042;-62
2024/01/17 06:19:16;;;;;;;11.45;5.65;;;-0.40;1.00;;;;;;4996689;28;20133;-62
2024/01/17 06:21:42;;;;;;;9.13;5.57;;;-0.30;1.00;;;;;;4996747;28;20034;-62
2024/01/17 06:24:08;;;;;;;12.40;5.95;;;-0.10;1.00;;;;;;4997589;28;20433;-62
2024/01/17 06:26:34;;;;;;;11.93;5.97;;;0.00;1.00;;;;;;4997001;28;20413;-62
2024/01/17 06:29:00;;;;;;;10.57;6.38;;;0.00;1.00;;;;;;4996911;28;20084;-63
2024/01/17 06:31:25;;;;;;;11.15;6.20;;;0.00;1.00;;;;;;4997237;28;20209;-62
2024/01/17 06:33:52;;;;;;;10.73;6.22;;;-0.10;1.00;;;;;;4996828;28;20283;-62
2024/01/17 06:36:17;;;;;;;9.27;5.78;;;-0.10;1.00;;;;;;4997016;28;20046;-62
2024/01/17 06:38:44;;;;;;;8.38;5.50;;;-0.10;1.00;;;;;;4997549;28;20026;-62
2024/01/17 06:41:10;;;;;;;11.43;6.03;;;-0.10;1.00;;;;;;4997343;28;20114;-62
2024/01/17 06:43:36;;;;;;;11.00;6.03;;;-0.10;1.00;;;;;;4996808;28;20433;-63
2024/01/17 06:46:05;;;;;;;10.27;5.63;;;-0.20;1.00;;;;;;4996783;28;20030;-62
2024/01/17 06:48:31;;;;;;;10.95;5.68;;;-0.30;1.00;;;;;;4996680;28;20038;-62
2024/01/17 06:50:57;;;;;;;8.30;5.25;;;-0.30;1.00;;;;;;4996759;28;20291;-62
2024/01/17 06:53:23;;;;;;;10.32;6.05;;;-0.30;1.00;;;;;;4997305;28;20054;-61
2024/01/17 06:55:49;;;;;;;8.82;5.53;;;1.40;87.50;;;;;;4997100;28;20081;-62
2024/01/17 06:58:15;;;;;;;12.95;5.70;;;0.70;1.00;;;;;;4997147;28;20043;-61
2024/01/17 07:00:44;;;;;;;10.40;6.07;;;0.50;1.00;;;;;;4997203;28;20034;-61
2024/01/17 07:03:10;;;;;;;10.50;5.65;;;0.30;1.00;;;;;;4997161;28;20034;-61
2024/01/17 07:05:36;;;;;;;10.05;5.72;;;0.20;1.00;;;;;;4996485;28;20109;-61
2024/01/17 07:08:02;;;;;;;8.85;5.10;;;0.20;1.00;;;;;;5012712;28;20065;-61
2024/01/17 07:10:28;;;;;;;12.45;5.72;;;0.20;1.00;;;;;;4996496;28;20359;-61
2024/01/17 07:12:54;;;;;;;10.70;5.30;;;0.20;1.00;;;;;;4996491;28;20049;-61
2024/01/17 07:15:21;;;;;;;10.52;6.25;;;0.10;1.00;;;;;;4997202;28;20058;-61
2024/01/17 07:17:46;;;;;;;11.23;5.80;;;0.10;1.00;;;;;;4996395;28;20417;-60
2024/01/17 07:20:13;;;;;;;8.50;5.10;;;0.00;1.00;;;;;;4996237;28;20030;-61
2024/01/17 07:22:42;;;;;;;12.70;6.00;;;0.10;1.00;;;;;;4997041;28;20045;-61
2024/01/17 07:25:10;;;;;;;11.35;5.35;;;0.10;1.00;;;;;;4996195;28;20061;-62
2024/01/17 07:27:39;;;;;;;12.80;6.78;;;2.10;73.40;;;;;;4996942;28;20035;-61
2024/01/17 07:30:05;;;;;;;12.00;6.50;;;2.60;1.00;;;;;;4996897;28;20031;-60
2024/01/17 07:32:31;;;;;;;9.43;5.80;;;1.90;1.00;;;;;;4996018;28;20062;-60
2024/01/17 07:34:57;;;;;;;8.48;5.90;;;1.10;1.00;;;;;;4996922;28;20093;-61
2024/01/17 07:37:23;;;;;;;9.00;5.88;;;0.70;1.00;;;;;;4996163;28;20047;-61
2024/01/17 07:39:49;;;;;;;11.95;5.90;;;0.40;1.00;;;;;;4996273;28;20038;-61
2024/01/17 07:42:18;;;;;;;9.68;5.63;;;0.50;1.00;;;;;;4996844;28;20109;-61
2024/01/17 07:44:44;;;;;;;9.55;5.95;;;0.40;1.00;;;;;;4996080;28;20405;-61
2024/01/17 07:47:10;;;;;;;10.13;5.63;;;0.30;1.00;;;;;;4996036;28;20041;-61
2024/01/17 07:49:39;;;;;;;10.18;5.78;;;0.20;1.00;;;;;;4999276;28;20043;-61
2024/01/17 07:52:06;;;;;;;11.75;6.13;;;0.10;1.00;;;;;;5000211;28;20104;-60
2024/01/17 07:54:32;;;;;;;9.10;6.00;;;-0.10;1.00;;;;;;5000196;28;20350;-60
2024/01/17 07:56:58;;;;;;;19.02;7.05;;;-0.10;1.00;;;;;;4999973;28;20066;-61
2024/01/17 07:59:30;;;;;;;12.25;6.07;;;-0.10;1.00;;;;;;5000028;28;20018;-61
2024/01/17 08:01:56;;;;;;;11.98;6.10;;;-0.10;1.00;;;;;;5015579;28;20085;-60
2024/01/17 08:04:23;;;;;;;9.60;5.63;;;-0.20;1.00;;;;;;4999923;28;20271;-60
2024/01/17 08:06:49;;;;;;;9.98;6.05;;;-0.10;1.00;;;;;;5015421;28;20388;-60
2024/01/17 08:09:21;;;;;;;11.60;6.15;;;-0.10;1.00;;;;;;4999928;28;20323;-60
2024/01/17 08:11:51;;;;;;;;;;;0.00;1.00;;;;;;5015955;28;20306;-60
2024/01/17 08:14:16;;;;;;;13.27;5.90;;;-0.10;1.00;;;;;;4999827;28;20052;-61
2024/01/17 08:16:44;;;;;;;12.30;6.10;;;-0.10;1.00;;;;;;4999789;28;20113;-60
2024/01/17 08:19:09;;;;;;;14.05;6.70;;;-0.10;1.00;;;;;;4999083;28;20279;-60
2024/01/17 08:21:36;;;;;;;15.40;6.82;;;-0.20;1.00;;;;;;5000141;28;20185;-60
2024/01/17 08:24:01;;;;;;;12.18;6.15;;;-0.10;1.00;;;;;;4999645;28;20117;-61
2024/01/17 08:26:27;;;;;;;12.57;6.03;;;-0.10;1.00;;;;;;4999051;28;20177;-60
2024/01/17 08:28:53;;;;;;;9.73;6.05;;;0.00;1.00;;;;;;4999044;28;20035;-60
2024/01/17 08:31:19;;;;;;;9.90;6.22;;;0.00;1.00;;;;;;4999372;28;20058;-61
2024/01/17 08:33:45;;;;;;;12.32;6.75;;;0.00;1.00;;;;;;4999577;28;20030;-60
2024/01/17 08:36:12;;;;;;;13.23;6.13;;;-0.10;1.00;;;;;;4998593;28;20384;-60
2024/01/17 08:38:37;;;;;;;12.23;6.32;;;-0.20;1.00;;;;;;4982702;28;20066;-60
2024/01/17 08:41:03;;;;;;;12.48;6.72;;;-0.10;1.00;;;;;;4999390;28;20050;-61
2024/01/17 08:43:29;;;;;;;13.30;6.40;;;0.10;1.00;;;;;;5014887;28;20045;-61
2024/01/17 08:45:55;;;;;;;11.68;6.38;;;0.20;1.00;;;;;;4999204;28;20483;-61
2024/01/17 08:48:21;;;;;;;9.55;6.03;;;0.20;1.00;;;;;;4998541;28;20336;-60
2024/01/17 08:50:47;;;;;;;12.13;6.47;;;0.10;1.00;;;;;;4998489;28;20057;-60
2024/01/17 08:53:12;;;;;;;11.38;6.28;;;0.10;1.00;;;;;;4999214;28;20061;-61
2024/01/17 08:55:38;;;;;;;11.23;6.07;;;0.30;1.00;;;;;;4999067;28;20218;-61
2024/01/17 08:58:04;;;;;;;9.77;6.07;;;0.40;1.00;;;;;;4998552;28;20055;-61
2024/01/17 09:00:30;;;;;;;15.82;6.38;;;0.40;1.00;;;;;;4998916;28;20034;-61
2024/01/17 09:02:55;;;;;;;11.43;6.10;;;0.50;1.00;;;;;;4999054;28;20027;-60
2024/01/17 09:05:21;;;;;;;11.20;6.05;;;0.30;1.00;;;;;;4999007;28;20030;-60
2024/01/17 09:07:49;;;;;;;11.05;6.68;;;0.20;1.00;;;;;;4998206;28;20314;-61
2024/01/17 09:10:17;;;;;;;11.80;5.88;;;0.10;1.00;;;;;;4998274;28;20402;-60
2024/01/17 09:12:44;;;;;;;13.45;6.50;;;0.20;1.00;;;;;;4998768;28;20041;-60
2024/01/17 09:15:10;;;;;;;13.35;7.00;;;0.30;1.00;;;;;;4998117;28;20026;-60
2024/01/17 09:17:36;;;;;;;10.60;5.57;;;0.50;1.00;;;;;;4998600;28;20030;-60
2024/01/17 09:20:04;;;;;;;11.32;6.13;;;0.60;1.00;;;;;;4998716;28;20045;-60
2024/01/17 09:22:30;;;;;;;11.30;5.93;;;0.60;1.00;;;;;;4997878;28;20138;-60
2024/01/17 09:24:55;;;;;;;14.02;6.60;;;0.60;1.00;;;;;;4998684;28;20086;-60
2024/01/17 09:27:21;;;;;;;13.40;6.80;;;0.40;1.00;;;;;;4997911;28;20390;-60
2024/01/17 09:29:47;;;;;;;14.75;6.78;;;0.40;1.00;;;;;;4998577;28;20291;-60
2024/01/17 09:32:13;;;;;;;12.18;6.40;;;0.40;1.00;;;;;;4997532;28;20331;-60
2024/01/17 09:34:41;;;;;;;11.23;7.10;;;0.40;1.00;;;;;;4998381;28;20038;-60
2024/01/17 09:37:06;;;;;;;12.32;7.07;;;0.50;1.00;;;;;;4998240;28;20030;-60
2024/01/17 09:39:32;;;;;;;13.05;7.20;;;0.80;1.00;;;;;;4998391;28;20038;-60
2024/01/17 09:41:59;;;;;;;11.50;6.70;;;0.90;1.00;;;;;;4997525;28;20030;-63
2024/01/17 09:44:27;;;;;;;12.30;6.47;;;0.90;1.00;;;;;;4997628;28;20049;-60
2024/01/17 09:46:52;;;;;;;12.68;6.78;;;0.80;1.00;;;;;;4998213;28;20401;-60
2024/01/17 09:49:19;;;;;;;12.10;6.88;;;0.80;1.00;;;;;;4997330;28;20038;-61
2024/01/17 09:51:45;;;;;;;15.50;7.20;;;0.70;1.00;;;;;;5013627;28;20038;-60
2024/01/17 09:54:11;;;;;;;11.82;6.65;;;0.90;1.00;;;;;;4998105;28;20362;-59
2024/01/17 09:56:41;;;;;;;13.25;6.65;;;1.00;1.00;;;;;;4997230;28;20406;-59
2024/01/17 09:59:21;;;;;;;16.38;6.65;;;1.00;1.00;;;;;;4997938;28;20436;-59
2024/01/17 10:01:47;;;;;;;14.45;7.30;;;1.20;1.00;;;;;;4998072;28;20054;-60
2024/01/17 10:04:15;;;;;;;16.27;7.68;;;1.30;1.00;;;;;;4997925;28;20330;-60
2024/01/17 10:06:44;;;;;;;13.45;7.13;;;1.20;1.00;;;;;;4997160;28;20038;-60
2024/01/17 10:09:10;;;;;;;13.57;7.55;;;1.20;1.00;;;;;;4997871;28;20062;-59
2024/01/17 10:11:36;;;;;;;19.70;7.57;;;1.20;1.00;;;;;;4996602;28;20022;-60
2024/01/17 10:14:03;;;;;;;14.27;6.90;;;1.50;1.00;;;;;;4997700;28;20105;-59
2024/01/17 10:16:29;;;;;;;12.65;7.00;;;1.40;1.00;;;;;;4997708;28;20397;-60
2024/01/17 10:18:55;;;;;;;19.88;8.07;;;1.50;1.00;;;;;;4980821;28;20138;-59
2024/01/17 10:21:22;;;;;;;14.02;6.95;;;1.30;1.00;;;;;;4997706;28;20504;-60
2024/01/17 10:23:49;;;;;;;13.50;7.00;;;1.40;1.00;;;;;;4997568;28;20022;-63
2024/01/17 10:26:15;;;;;;;11.27;6.93;;;1.50;1.00;;;;;;4997618;28;20034;-59
2024/01/17 10:28:40;;;;;;;16.33;7.18;;;1.50;1.00;;;;;;4997740;28;20128;-59
2024/01/17 10:31:06;;;;;;;11.07;6.75;;;1.50;1.00;;;;;;4996803;28;20355;-59
2024/01/17 10:33:32;;;;;;;11.57;6.95;;;1.70;1.00;;;;;;4997493;28;20034;-59
2024/01/17 10:35:59;;;;;;;12.45;7.18;;;1.70;1.00;;;;;;4996777;28;20034;-59
2024/01/17 10:38:31;;;;;;;12.57;7.07;;;1.70;1.00;;;;;;4996805;28;20023;-59
2024/01/17 10:41:08;;;;;;;12.27;6.78;;;1.80;1.00;;;;;;4996699;28;20031;-58
2024/01/17 10:44:06;;;;;;;15.63;7.63;;;1.70;99.90;;;;;;4980638;28;20410;-59
2024/01/17 10:46:33;;;;;;;12.70;6.90;;;1.60;1.00;;;;;;4963589;28;20065;-60
2024/01/17 10:48:59;;;;;;;16.33;7.90;;;1.50;1.00;;;;;;4997420;28;20065;-60
2024/01/17 10:51:25;;;;;;;14.43;7.53;;;1.60;1.00;;;;;;4996690;28;20038;-59
2024/01/17 10:53:55;;;;;;;14.93;7.00;;;1.80;1.00;;;;;;4997364;28;20386;-59
2024/01/17 10:56:22;;;;;;;14.68;7.13;;;2.00;1.00;;;;;;4997268;28;20081;-60
2024/01/17 10:58:50;;;;;;;14.90;7.38;;;2.00;1.00;;;;;;4996592;28;20026;-59
2024/01/17 11:01:25;;;;;;;13.68;7.60;;;2.10;99.90;;;;;;4997152;28;20085;-60
2024/01/17 11:03:55;;;;;;;14.05;7.55;;;2.10;1.00;;;;;;4996501;28;20061;-59
2024/01/17 11:06:22;;;;;;;12.90;7.63;;;2.20;1.00;;;;;;5012890;28;20382;-60
2024/01/17 11:08:50;;;;;;;15.88;8.05;;;2.20;1.00;;;;;;4996349;28;20302;-60
2024/01/17 11:11:16;;;;;;;18.42;8.13;;;2.20;99.90;;;;;;4997202;28;20038;-60
2024/01/17 11:13:44;;;;;;;15.48;7.65;;;2.20;99.90;;;;;;4996492;28;20114;-60
2024/01/17 11:16:13;;;;;;;12.00;6.95;;;2.10;99.90;;;;;;4996457;28;20035;-59
2024/01/17 11:18:42;;;;;;;15.15;8.18;;;1.90;1.00;;;;;;4996939;28;20393;-60
2024/01/17 11:21:08;;;;;;;13.25;7.47;;;1.90;1.00;;;;;;4996430;28;20121;-60
2024/01/17 11:23:44;;;;;;;15.50;7.55;;;1.70;1.00;;;;;;5000282;28;20185;-59
2024/01/17 11:26:18;;;;;;;16.10;8.25;;;1.90;1.00;;;;;;5000833;28;20409;-59
2024/01/17 11:28:52;;;;;;;16.38;7.57;;;2.10;1.00;;;;;;5000886;28;20117;-59
2024/01/17 11:31:56;;;;;;;11.48;6.93;;;2.40;1.00;;;;;;5000528;28;20099;-58
2024/01/17 11:34:22;;;;;;;11.45;7.47;;;2.30;99.90;;;;;;5000642;28;20022;-60
2024/01/17 11:36:48;;;;;;;13.65;7.57;;;3.00;99.90;;;;;;5000720;28;20038;-60
2024/01/17 11:39:16;;;;;;;12.52;7.30;;;2.60;99.90;;;;;;4983753;28;20074;-60
2024/01/17 11:41:49;;;;;;;15.10;7.72;;;2.60;99.90;;;;;;5000791;28;20272;-60
2024/01/17 11:44:17;;;;;;;15.05;7.63;;;2.40;99.90;;;;;;4999821;28;20030;-59
2024/01/17 11:46:51;;;;;;;15.02;7.45;;;2.40;99.90;;;;;;5000436;28;20327;-59
2024/01/17 11:49:39;;;;;;;13.77;7.88;;;2.40;99.90;;;;;;5000450;28;20057;-59
2024/01/17 11:52:26;;;;;;;15.60;7.60;;;2.30;99.90;;;;;;5000375;28;20062;-59
2024/01/17 11:54:52;;;;;;;14.50;8.13;;;2.30;1.00;;;;;;5000344;28;20045;-59
2024/01/17 11:57:18;;;;;;;12.93;7.20;;;2.00;1.00;;;;;;4999361;28;20031;-59
2024/01/17 11:59:44;;;;;;;15.18;8.10;;;2.00;1.00;;;;;;4999434;28;20039;-58
2024/01/17 12:02:39;;;;;;;12.25;8.05;;;2.20;1.00;;;;;;5000266;28;20030;-58
2024/01/17 12:05:07;;;;;;;16.08;8.73;;;2.20;1.00;;;;;;5000290;28;20173;-59
2024/01/17 12:07:40;;;;;;;15.32;8.20;;;2.20;1.00;;;;;;4999349;28;20030;-58
2024/01/17 12:10:10;;;;;;;17.70;8.52;;;2.00;1.00;;;;;;5000125;28;20038;-61
2024/01/17 12:12:37;;;;;;;14.88;7.95;;;1.90;1.00;;;;;;4999659;28;20047;-58
2024/01/17 12:15:09;;;;;;;14.40;7.97;;;1.90;1.00;;;;;;4999370;28;20038;-59
2024/01/17 12:17:37;;;;;;;11.93;6.32;;;2.00;1.00;;;;;;4999901;28;20054;-59
2024/01/17 12:20:07;;;;;;;14.45;8.65;;;1.90;1.00;;;;;;4999853;28;20033;-59
2024/01/17 12:22:37;;;;;;;15.77;8.45;;;1.80;1.00;;;;;;4999095;28;20038;-61
2024/01/17 12:25:03;;;;;;;15.32;8.80;;;1.90;1.00;;;;;;4999209;28;20034;-58
2024/01/17 12:27:32;;;;;;;13.13;8.63;;;1.80;1.00;;;;;;4999737;28;20041;-60
2024/01/17 12:30:07;;;;;;;15.20;9.00;;;1.80;1.00;;;;;;4999632;28;20050;-58
2024/01/17 12:32:34;;;;;;;14.98;8.55;;;1.50;1.00;;;;;;4999401;28;20050;-58
2024/01/17 12:35:00;;;;;;;14.20;8.00;;;1.50;1.00;;;;;;4999042;28;20060;-59
2024/01/17 12:37:28;;;;;;;16.25;8.63;;;1.50;1.00;;;;;;4999402;28;20042;-59
2024/01/17 12:39:54;;;;;;;15.70;8.38;;;1.70;1.00;;;;;;4999563;28;20023;-59
2024/01/17 12:42:20;;;;;;;14.75;8.38;;;1.70;1.00;;;;;;4999431;28;20283;-59
2024/01/17 12:44:47;;;;;;;20.80;9.20;;;1.80;1.00;;;;;;4998726;28;20354;-59
2024/01/17 12:47:13;;;;;;;17.00;9.10;;;1.60;1.00;;;;;;4999330;28;20034;-58